Time;durP1;ratioP1;P1;durP2;ratioP2;P2;SDS_P1;SDS_P2;PMS_P1;PMS_P2;Temp;Humidity;BMP_temperature;BMP_pressure;BME280_temperature;BME280_humidity;BME280_pressure;Samples;Min_cycle;Max_cycle;Signal;HPM_P1;HPM_P2
2022/12/28 00:00:29;;;;;;;7.60;2.40;;;3.10;99.90;;;;;;5071713;28;20390;-52
2022/12/28 00:02:58;;;;;;;6.55;2.47;;;3.20;99.90;;;;;;5069187;28;20521;-51
2022/12/28 00:05:23;;;;;;;7.43;2.30;;;3.30;99.90;;;;;;5071693;28;20395;-57
2022/12/28 00:07:49;;;;;;;8.15;2.95;;;3.30;99.90;;;;;;5071576;28;20884;-52
2022/12/28 00:10:14;;;;;;;8.27;2.70;;;4.50;99.90;;;;;;5072180;28;20383;-51
2022/12/28 00:12:40;;;;;;;8.20;2.40;;;3.50;99.90;;;;;;5071507;28;20839;-52
2022/12/28 00:15:06;;;;;;;7.13;2.40;;;3.50;99.90;;;;;;5071785;28;20391;-52
2022/12/28 00:17:31;;;;;;;8.40;2.40;;;3.50;99.90;;;;;;5071426;28;20422;-52
2022/12/28 00:19:58;;;;;;;6.93;2.67;;;3.50;99.90;;;;;;5072214;28;20432;-52
2022/12/28 00:22:25;;;;;;;6.57;2.10;;;3.60;99.90;;;;;;5071978;28;20415;-57
2022/12/28 00:24:51;;;;;;;7.15;2.50;;;3.70;99.90;;;;;;5071537;28;20471;-52
2022/12/28 00:27:17;;;;;;;6.13;2.30;;;5.50;99.90;;;;;;5071416;28;20749;-52
2022/12/28 00:29:42;;;;;;;9.00;2.10;;;3.90;66.70;;;;;;5070193;28;20449;-52
2022/12/28 00:32:08;;;;;;;6.43;1.67;;;3.80;1.00;;;;;;5070881;28;20453;-52
2022/12/28 00:34:34;;;;;;;5.90;1.70;;;3.80;1.00;;;;;;5069351;28;20494;-53
2022/12/28 00:36:59;;;;;;;5.70;2.10;;;4.40;1.00;;;;;;5070849;28;20831;-54
2022/12/28 00:39:25;;;;;;;5.77;1.93;;;4.00;99.90;;;;;;5071131;28;20478;-58
2022/12/28 00:41:50;;;;;;;6.40;2.15;;;5.10;99.90;;;;;;5071561;28;20372;-52
2022/12/28 00:44:16;;;;;;;6.47;2.20;;;4.00;99.90;;;;;;5071317;28;20475;-54
2022/12/28 00:46:42;;;;;;;8.50;1.92;;;5.80;1.00;;;;;;5071111;28;20388;-52
2022/12/28 00:49:07;;;;;;;6.63;2.05;;;3.90;1.00;;;;;;5071276;28;20392;-52
2022/12/28 00:51:33;;;;;;;4.97;1.30;;;3.90;1.00;;;;;;5070415;28;20396;-52
2022/12/28 00:53:59;;;;;;;7.50;1.50;;;3.90;94.10;;;;;;5071252;28;20427;-53
2022/12/28 00:56:25;;;;;;;6.80;1.98;;;4.10;99.90;;;;;;5070939;28;20380;-58
2022/12/28 00:58:55;;;;;;;5.97;1.92;;;3.90;99.90;;;;;;5071309;28;20407;-54
2022/12/28 01:01:22;;;;;;;5.40;1.67;;;4.10;1.00;;;;;;5071545;28;20399;-52
2022/12/28 01:03:48;;;;;;;6.50;1.80;;;5.90;1.00;;;;;;5069458;28;20460;-52
2022/12/28 01:06:16;;;;;;;6.40;1.80;;;4.50;1.00;;;;;;5071303;28;20748;-52
2022/12/28 01:08:42;;;;;;;5.65;1.70;;;4.10;1.00;;;;;;5070820;28;20379;-53
2022/12/28 01:11:09;;;;;;;7.37;2.17;;;4.20;99.90;;;;;;5055278;28;20795;-52
2022/12/28 01:13:35;;;;;;;6.18;1.85;;;4.20;1.00;;;;;;5070582;28;20384;-52
2022/12/28 01:16:10;;;;;;;7.65;1.80;;;4.20;97.40;;;;;;5071207;28;20892;-52
2022/12/28 01:18:35;;;;;;;5.82;1.70;;;4.20;99.90;;;;;;5070726;28;20885;-52
2022/12/28 01:21:11;;;;;;;5.53;1.50;;;5.80;1.00;;;;;;5071182;28;20400;-53
2022/12/28 01:23:36;;;;;;;5.82;1.55;;;4.20;99.90;;;;;;5070450;28;20380;-52
2022/12/28 01:26:03;;;;;;;6.22;1.70;;;6.30;1.00;;;;;;5070960;28;20419;-52
2022/12/28 01:28:29;;;;;;;5.50;1.60;;;4.50;1.00;;;;;;5070378;28;20379;-52
2022/12/28 01:30:54;;;;;;;5.97;1.60;;;4.40;99.90;;;;;;5070740;28;20537;-52
2022/12/28 01:33:20;;;;;;;6.93;1.70;;;6.40;91.10;;;;;;5070927;28;20474;-54
2022/12/28 01:35:46;;;;;;;6.10;1.60;;;4.40;1.00;;;;;;5070073;28;20434;-53
2022/12/28 01:38:11;;;;;;;6.00;1.90;;;5.20;1.00;;;;;;5070844;28;20905;-52
2022/12/28 01:40:40;;;;;;;6.47;1.90;;;4.60;99.90;;;;;;5070109;28;20534;-53
2022/12/28 01:43:14;;;;;;;5.10;1.60;;;6.00;1.00;;;;;;5070445;28;20761;-52
2022/12/28 01:45:43;;;;;;;5.13;1.55;;;4.60;1.00;;;;;;5069626;28;20392;-52
2022/12/28 01:48:24;;;;;;;6.40;1.98;;;4.60;1.00;;;;;;5070755;28;20401;-53
2022/12/28 01:50:51;;;;;;;6.05;1.50;;;5.00;99.90;;;;;;5070187;28;20391;-52
2022/12/28 01:53:18;;;;;;;5.38;1.55;;;4.60;99.90;;;;;;5070585;28;20388;-52
2022/12/28 01:55:46;;;;;;;5.47;1.52;;;4.70;99.90;;;;;;5069665;28;20627;-52
2022/12/28 01:58:17;;;;;;;7.30;1.90;;;4.70;99.90;;;;;;5070384;28;20873;-53
2022/12/28 02:00:43;;;;;;;5.40;1.52;;;5.50;99.90;;;;;;5069491;28;20398;-52
2022/12/28 02:03:12;;;;;;;5.45;1.40;;;4.60;99.90;;;;;;5070441;28;20384;-52
2022/12/28 02:05:42;;;;;;;8.00;1.80;;;6.50;99.90;;;;;;5069018;28;20427;-52
2022/12/28 02:08:21;;;;;;;5.60;1.52;;;4.80;99.90;;;;;;5070129;28;20776;-52
2022/12/28 02:10:46;;;;;;;5.40;1.50;;;6.40;49.60;;;;;;5069522;28;20384;-52
2022/12/28 02:13:15;;;;;;;7.23;1.90;;;5.90;1.00;;;;;;5070188;28;20395;-52
2022/12/28 02:15:43;;;;;;;7.70;1.50;;;6.10;1.00;;;;;;5069285;28;20416;-52
2022/12/28 02:18:09;;;;;;;6.38;1.77;;;6.30;1.00;;;;;;5070443;28;20403;-52
2022/12/28 02:21:09;;;;;;;5.20;1.50;;;5.10;1.00;;;;;;5069308;28;20387;-52
2022/12/28 02:23:56;;;;;;;5.30;1.23;;;4.80;1.00;;;;;;5069529;28;20386;-52
2022/12/28 02:26:31;;;;;;;5.32;1.30;;;4.80;1.00;;;;;;5050375;28;20386;-52
2022/12/28 02:29:29;;;;;;;5.60;1.30;;;4.90;1.00;;;;;;5050176;28;20874;-52
2022/12/28 02:32:09;;;;;;;5.70;1.23;;;4.90;1.00;;;;;;5049075;28;20398;-52
2022/12/28 02:35:11;;;;;;;4.80;1.05;;;5.00;1.00;;;;;;5054272;28;20424;-52
2022/12/28 02:37:43;;;;;;;5.35;1.40;;;5.10;1.00;;;;;;5066179;28;20415;-51
2022/12/28 02:40:15;;;;;;;5.43;1.10;;;5.00;1.00;;;;;;5069907;28;20400;-52
2022/12/28 02:42:43;;;;;;;4.40;1.10;;;5.00;1.00;;;;;;5069134;28;20433;-51
2022/12/28 02:51:25;;;;;;;6.15;1.10;;;5.10;1.00;;;;;;5069686;28;20483;-51
2022/12/28 02:53:59;;;;;;;4.30;0.80;;;5.20;1.00;;;;;;5049249;28;20392;-51
2022/12/28 02:56:41;;;;;;;5.77;1.23;;;5.20;99.90;;;;;;5055364;28;20392;-51
2022/12/28 02:59:26;;;;;;;6.10;0.80;;;5.20;99.90;;;;;;5069472;28;20411;-51
2022/12/28 03:02:14;;;;;;;4.50;0.90;;;5.30;99.90;;;;;;5049309;28;20843;-51
2022/12/28 03:08:13;;;;;;;5.05;0.90;;;5.20;99.90;;;;;;5052242;28;20400;-51
2022/12/28 03:08:18;;;;;;;4.20;0.82;;;5.20;99.90;;;;;;5068808;28;20482;-52
2022/12/28 03:11:02;;;;;;;4.15;0.70;;;5.30;99.90;;;;;;5068718;28;20403;-51
2022/12/28 03:13:41;;;;;;;4.60;1.10;;;5.30;99.90;;;;;;5069334;28;20908;-55
2022/12/28 03:16:13;;;;;;;4.47;0.88;;;7.10;99.90;;;;;;5069054;28;20423;-51
2022/12/28 03:33:04;;;;;;;5.10;1.00;;;5.60;92.90;;;;;;5069295;28;20378;-51
2022/12/28 03:35:39;;;;;;;5.70;1.20;;;7.00;43.10;;;;;;5067741;28;21226;-53
2022/12/28 03:38:05;;;;;;;6.00;1.10;;;5.70;1.00;;;;;;5049222;28;20417;-52
2022/12/28 03:40:43;;;;;;;5.03;1.20;;;5.70;1.00;;;;;;5058795;28;20383;-51
2022/12/28 03:46:17;;;;;;;4.70;0.90;;;7.10;1.00;;;;;;5069311;28;20433;-52
2022/12/28 03:48:44;;;;;;;4.45;0.88;;;5.70;1.00;;;;;;5068464;28;20870;-51
2022/12/28 03:51:13;;;;;;;4.10;0.70;;;5.70;1.00;;;;;;5068764;28;20437;-51
2022/12/28 03:53:45;;;;;;;4.30;0.80;;;5.60;1.00;;;;;;5068166;28;20380;-51
2022/12/28 03:56:12;;;;;;;4.57;1.17;;;5.60;1.00;;;;;;5069141;28;20391;-52
2022/12/28 03:58:38;;;;;;;4.30;0.80;;;5.70;1.00;;;;;;5068290;28;20403;-51
2022/12/28 04:01:04;;;;;;;5.67;1.00;;;7.20;1.00;;;;;;5068649;28;20403;-51
2022/12/28 04:03:30;;;;;;;4.53;0.93;;;7.00;1.00;;;;;;5068160;28;20904;-57
2022/12/28 04:05:55;;;;;;;4.90;1.40;;;5.70;1.00;;;;;;5069150;28;20443;-51
2022/12/28 04:08:21;;;;;;;5.57;0.87;;;6.70;1.00;;;;;;5071720;28;20400;-51
2022/12/28 04:10:46;;;;;;;4.70;0.90;;;5.70;1.00;;;;;;5071575;28;20379;-52
2022/12/28 04:13:12;;;;;;;4.93;1.20;;;5.60;1.00;;;;;;5072867;28;20514;-51
2022/12/28 04:15:38;;;;;;;5.68;1.20;;;5.60;1.00;;;;;;5071573;28;20403;-52
2022/12/28 04:18:03;;;;;;;4.10;0.70;;;5.50;1.00;;;;;;5072565;28;20465;-51
2022/12/28 04:20:29;;;;;;;4.43;1.00;;;5.50;1.00;;;;;;5071398;28;20923;-57
2022/12/28 04:22:55;;;;;;;4.70;1.00;;;5.70;1.00;;;;;;5072312;28;20860;-51
2022/12/28 04:25:20;;;;;;;4.40;0.90;;;5.60;1.00;;;;;;5072004;28;20406;-51
2022/12/28 04:27:46;;;;;;;4.68;1.00;;;5.60;1.00;;;;;;5071535;28;20391;-52
2022/12/28 04:30:11;;;;;;;4.50;1.20;;;5.60;1.00;;;;;;5072076;28;20388;-51
2022/12/28 04:32:37;;;;;;;5.30;0.70;;;6.10;81.30;;;;;;5071427;28;20384;-51
2022/12/28 04:35:03;;;;;;;5.25;1.00;;;5.50;99.90;;;;;;5071370;28;20831;-51
2022/12/28 04:37:29;;;;;;;4.80;0.90;;;5.60;99.90;;;;;;5071664;28;20399;-58
2022/12/28 04:39:55;;;;;;;5.90;1.30;;;5.50;99.90;;;;;;5070435;28;20479;-50
2022/12/28 04:42:21;;;;;;;4.90;0.90;;;6.50;99.90;;;;;;5072035;28;20857;-51
2022/12/28 04:44:46;;;;;;;6.37;1.20;;;5.70;99.90;;;;;;5071385;28;20430;-50
2022/12/28 04:47:12;;;;;;;4.45;0.93;;;5.70;99.90;;;;;;5072182;28;20388;-51
2022/12/28 04:49:38;;;;;;;5.80;0.80;;;5.70;99.90;;;;;;5070732;28;20392;-50
2022/12/28 04:52:03;;;;;;;4.80;0.80;;;5.60;99.90;;;;;;5071927;28;20839;-50
2022/12/28 04:54:29;;;;;;;7.10;1.50;;;5.60;99.90;;;;;;5071049;28;20387;-55
2022/12/28 04:56:55;;;;;;;4.80;0.90;;;5.60;99.90;;;;;;5071960;28;20419;-50
2022/12/28 04:59:20;;;;;;;4.60;0.80;;;5.70;99.90;;;;;;5071431;28;20474;-51
2022/12/28 05:01:46;;;;;;;4.72;0.90;;;5.70;99.90;;;;;;5071195;28;20797;-50
2022/12/28 05:04:11;;;;;;;4.50;0.93;;;5.70;99.90;;;;;;5071333;28;20468;-51
2022/12/28 05:06:37;;;;;;;4.72;1.00;;;5.80;99.90;;;;;;5070808;28;20475;-51
2022/12/28 05:09:03;;;;;;;4.50;0.87;;;7.00;99.90;;;;;;5071563;28;20429;-50
2022/12/28 05:11:29;;;;;;;4.40;0.90;;;5.80;99.90;;;;;;5071233;28;20394;-56
2022/12/28 05:13:55;;;;;;;4.70;0.65;;;6.40;99.90;;;;;;5070978;28;20395;-50
2022/12/28 05:16:23;;;;;;;4.63;0.93;;;5.80;99.90;;;;;;5071464;28;20379;-50
2022/12/28 05:18:49;;;;;;;4.77;0.97;;;5.70;99.90;;;;;;5069987;28;20457;-51
2022/12/28 05:21:18;;;;;;;5.20;1.10;;;5.80;99.90;;;;;;5070563;28;20388;-51
2022/12/28 05:23:44;;;;;;;4.60;1.10;;;5.80;99.90;;;;;;5070799;28;20372;-51
2022/12/28 05:26:15;;;;;;;4.30;0.80;;;5.90;99.90;;;;;;5071038;28;20384;-53
2022/12/28 05:28:41;;;;;;;5.25;0.80;;;6.00;99.90;;;;;;5070290;28;20426;-50
2022/12/28 05:31:11;;;;;;;4.20;0.80;;;6.00;99.90;;;;;;5071001;28;20424;-52
2022/12/28 05:33:36;;;;;;;4.97;0.90;;;6.50;99.90;;;;;;5070147;28;20426;-50
2022/12/28 05:36:07;;;;;;;6.73;0.80;;;6.10;99.90;;;;;;5069931;28;20408;-50
2022/12/28 05:38:34;;;;;;;5.30;1.00;;;6.20;49.90;;;;;;5070141;28;20418;-54
2022/12/28 05:41:12;;;;;;;3.90;0.60;;;6.20;38.70;;;;;;5070826;28;20475;-50
2022/12/28 05:43:38;;;;;;;6.25;0.82;;;6.20;45.90;;;;;;5069961;28;20387;-49
2022/12/28 05:46:06;;;;;;;4.70;0.80;;;6.20;45.20;;;;;;5070545;28;20896;-49
2022/12/28 05:48:37;;;;;;;4.40;0.80;;;7.90;27.90;;;;;;5070336;28;20384;-55
2022/12/28 05:51:05;;;;;;;4.45;0.65;;;7.10;25.30;;;;;;5070428;28;20420;-51
2022/12/28 05:53:32;;;;;;;4.20;0.60;;;6.10;12.70;;;;;;5069850;28;20410;-55
2022/12/28 05:56:12;;;;;;;4.20;0.60;;;6.20;16.30;;;;;;5070483;28;20453;-52
2022/12/28 05:58:38;;;;;;;5.20;0.80;;;6.20;1.00;;;;;;5069672;28;20426;-50
2022/12/28 06:01:13;;;;;;;5.90;0.85;;;6.20;1.00;;;;;;5070026;28;20865;-50
2022/12/28 06:03:39;;;;;;;4.30;0.70;;;6.30;1.00;;;;;;5069141;28;20837;-50
2022/12/28 06:06:07;;;;;;;5.15;0.60;;;6.30;1.00;;;;;;5070316;28;20437;-51
2022/12/28 06:08:33;;;;;;;4.80;0.80;;;6.30;1.00;;;;;;5069204;28;20441;-56
2022/12/28 06:11:00;;;;;;;5.10;0.70;;;6.20;1.00;;;;;;5070000;28;20453;-50
2022/12/28 06:13:26;;;;;;;7.55;0.88;;;6.20;1.00;;;;;;5069481;28;20884;-50
2022/12/28 06:15:52;;;;;;;4.97;0.67;;;6.20;1.00;;;;;;5069527;28;20391;-50
2022/12/28 06:18:17;;;;;;;4.13;0.50;;;6.20;1.00;;;;;;5069485;28;20490;-50
2022/12/28 06:20:43;;;;;;;7.20;1.20;;;6.20;1.00;;;;;;5069347;28;20398;-50
2022/12/28 06:23:08;;;;;;;4.53;0.90;;;6.20;1.00;;;;;;5052272;28;20752;-50
2022/12/28 06:25:36;;;;;;;4.20;0.60;;;6.30;1.00;;;;;;5068758;28;20416;-50
2022/12/28 06:28:02;;;;;;;4.97;0.75;;;7.50;1.00;;;;;;5067913;28;20923;-50
2022/12/28 06:30:28;;;;;;;4.80;0.70;;;6.40;1.00;;;;;;5069010;28;20419;-50
2022/12/28 06:32:55;;;;;;;4.90;0.60;;;6.30;1.00;;;;;;5069150;28;20449;-50
2022/12/28 06:35:21;;;;;;;4.72;0.80;;;6.30;1.00;;;;;;5069389;28;20502;-50
2022/12/28 06:37:48;;;;;;;6.70;1.25;;;6.40;1.00;;;;;;5068861;28;20415;-51
2022/12/28 06:40:14;;;;;;;6.50;0.80;;;8.00;1.00;;;;;;5049730;28;20886;-50
2022/12/28 06:42:40;;;;;;;4.70;0.90;;;6.40;1.00;;;;;;5048995;28;20386;-52
2022/12/28 06:45:06;;;;;;;4.90;0.70;;;8.00;1.00;;;;;;5069840;28;20517;-50
2022/12/28 06:47:34;;;;;;;4.65;0.80;;;6.40;1.00;;;;;;5067904;28;20396;-56
2022/12/28 06:50:00;;;;;;;4.72;0.90;;;6.40;1.00;;;;;;5069586;28;20387;-50
2022/12/28 06:52:26;;;;;;;4.50;1.00;;;6.50;1.00;;;;;;5069211;28;20391;-50
2022/12/28 06:54:52;;;;;;;4.38;0.70;;;6.70;1.00;;;;;;5069157;28;20372;-50
2022/12/28 06:57:17;;;;;;;4.23;0.73;;;6.40;1.00;;;;;;5069383;28;20809;-51
2022/12/28 06:59:43;;;;;;;4.90;0.85;;;6.30;1.00;;;;;;5049189;28;20386;-50
2022/12/28 07:02:09;;;;;;;5.20;0.70;;;6.40;1.00;;;;;;5049633;28;20381;-50
2022/12/28 07:04:34;;;;;;;4.13;0.70;;;6.30;1.00;;;;;;5061534;28;20526;-58
2022/12/28 07:07:00;;;;;;;5.33;0.80;;;6.30;1.00;;;;;;5067639;28;20399;-51
2022/12/28 07:09:25;;;;;;;3.97;0.53;;;8.00;1.00;;;;;;5069158;28;20425;-51
2022/12/28 07:11:51;;;;;;;4.60;0.80;;;6.60;1.00;;;;;;5068757;28;20837;-52
2022/12/28 07:14:17;;;;;;;4.80;0.70;;;6.40;1.00;;;;;;5068932;28;20463;-50
2022/12/28 07:16:43;;;;;;;4.57;0.90;;;6.30;1.00;;;;;;5068829;28;20423;-50
2022/12/28 07:19:09;;;;;;;6.00;0.80;;;6.90;1.00;;;;;;5069226;28;20439;-51
2022/12/28 07:21:36;;;;;;;5.30;1.00;;;6.50;1.00;;;;;;5068636;28;20441;-52
2022/12/28 07:24:04;;;;;;;5.20;0.80;;;6.50;1.00;;;;;;5068868;28;20387;-50
2022/12/28 07:26:31;;;;;;;7.43;0.82;;;6.60;1.00;;;;;;5069183;28;20396;-52
2022/12/28 07:28:59;;;;;;;4.90;0.88;;;8.40;1.00;;;;;;5069234;28;20392;-50
2022/12/28 07:31:27;;;;;;;4.43;0.90;;;6.60;1.00;;;;;;5069026;28;20415;-51
2022/12/28 07:33:54;;;;;;;4.35;0.70;;;7.00;1.00;;;;;;5067809;28;21043;-50
2022/12/28 07:36:21;;;;;;;5.07;0.80;;;6.50;1.00;;;;;;5069130;28;20376;-51
2022/12/28 07:38:48;;;;;;;5.40;0.95;;;7.40;1.00;;;;;;5068197;28;20403;-50
2022/12/28 07:41:22;;;;;;;6.22;0.90;;;6.50;1.00;;;;;;5069117;28;20448;-50
2022/12/28 07:43:47;;;;;;;5.82;1.00;;;6.60;1.00;;;;;;5072388;28;20876;-50
2022/12/28 07:46:18;;;;;;;4.72;1.20;;;6.70;1.00;;;;;;5072474;28;20380;-51
2022/12/28 07:48:45;;;;;;;4.40;0.90;;;6.70;1.00;;;;;;5072458;28;20410;-50
2022/12/28 07:51:23;;;;;;;5.50;1.08;;;6.60;1.00;;;;;;5072496;28;20479;-50
2022/12/28 07:53:51;;;;;;;4.60;1.10;;;6.50;1.00;;;;;;5071758;28;20396;-51
2022/12/28 07:56:18;;;;;;;4.97;1.10;;;6.60;1.00;;;;;;5072615;28;20368;-50
2022/12/28 07:58:52;;;;;;;5.47;1.08;;;6.90;1.00;;;;;;5071957;28;20423;-50
2022/12/28 08:01:19;;;;;;;7.53;1.80;;;6.70;1.00;;;;;;5071357;28;20741;-50
2022/12/28 08:03:45;;;;;;;4.82;1.20;;;7.60;1.00;;;;;;5071881;28;20388;-50
2022/12/28 08:06:19;;;;;;;5.07;0.90;;;6.80;1.00;;;;;;5072362;28;20380;-50
2022/12/28 08:08:46;;;;;;;4.65;1.00;;;6.60;1.00;;;;;;5063544;28;20399;-50
2022/12/28 08:11:15;;;;;;;6.25;1.00;;;6.70;1.00;;;;;;5071081;28;20857;-50
2022/12/28 08:13:43;;;;;;;5.60;0.80;;;6.70;1.00;;;;;;5071760;28;20925;-52
2022/12/28 08:16:11;;;;;;;5.22;1.00;;;6.80;1.00;;;;;;5072327;28;20889;-49
2022/12/28 08:18:39;;;;;;;5.60;0.70;;;6.80;1.00;;;;;;5071660;28;20498;-50
2022/12/28 08:21:38;;;;;;;4.80;1.00;;;7.30;1.00;;;;;;5072105;28;20411;-50
2022/12/28 08:24:05;;;;;;;5.10;0.73;;;6.80;1.00;;;;;;5037834;28;20401;-51
2022/12/28 08:26:39;;;;;;;5.32;1.10;;;6.90;1.00;;;;;;5072293;28;20380;-53
2022/12/28 08:29:13;;;;;;;5.30;0.82;;;7.00;1.00;;;;;;5071926;28;20903;-53
2022/12/28 08:31:41;;;;;;;4.80;0.90;;;7.00;1.00;;;;;;5071060;28;20452;-51
2022/12/28 08:34:10;;;;;;;5.00;1.00;;;8.30;1.00;;;;;;5071700;28;20407;-53
2022/12/28 08:36:35;;;;;;;4.82;0.88;;;7.20;1.00;;;;;;5070922;28;20387;-55
2022/12/28 08:39:02;;;;;;;5.77;0.90;;;7.30;1.00;;;;;;5071713;28;20907;-51
2022/12/28 08:41:28;;;;;;;4.40;0.80;;;9.10;1.00;;;;;;5071461;28;20423;-51
2022/12/28 08:43:55;;;;;;;4.82;0.65;;;7.40;1.00;;;;;;5070930;28;20398;-51
2022/12/28 08:46:28;;;;;;;5.00;0.90;;;7.60;1.00;;;;;;5071780;28;20376;-50
2022/12/28 08:48:56;;;;;;;6.60;1.02;;;7.50;99.90;;;;;;5071183;28;20386;-50
2022/12/28 08:51:30;;;;;;;4.90;0.80;;;7.60;99.90;;;;;;5071969;28;20473;-50
2022/12/28 08:53:55;;;;;;;5.30;0.90;;;7.70;99.90;;;;;;5070000;28;20372;-51
2022/12/28 08:56:26;;;;;;;5.93;0.80;;;7.80;99.90;;;;;;5072285;28;20384;-51
2022/12/28 08:58:53;;;;;;;7.00;1.20;;;7.70;99.90;;;;;;5070499;28;20418;-52
2022/12/28 09:01:24;;;;;;;4.53;0.90;;;7.70;99.90;;;;;;5070102;28;20388;-51
2022/12/28 09:03:51;;;;;;;5.65;1.50;;;7.70;99.90;;;;;;5071810;28;20380;-51
2022/12/28 09:06:19;;;;;;;6.45;0.93;;;7.70;99.90;;;;;;5071127;28;20453;-51
2022/12/28 09:08:49;;;;;;;4.93;1.00;;;7.80;99.90;;;;;;5067859;28;20429;-50
2022/12/28 09:11:15;;;;;;;5.30;0.90;;;7.90;99.90;;;;;;5079970;28;20475;-51
2022/12/28 09:13:41;;;;;;;7.82;1.27;;;8.00;99.90;;;;;;5069802;28;20438;-51
2022/12/28 09:16:12;;;;;;;5.80;0.70;;;8.90;99.90;;;;;;5070898;28;20753;-55
2022/12/28 09:18:39;;;;;;;4.47;0.60;;;8.10;99.90;;;;;;5069772;28;20506;-55
2022/12/28 09:21:07;;;;;;;5.82;1.00;;;8.20;99.90;;;;;;5071079;28;20380;-55
2022/12/28 09:23:33;;;;;;;4.93;0.90;;;8.10;99.90;;;;;;5052778;28;20384;-60
2022/12/28 09:26:08;;;;;;;4.47;0.80;;;8.20;99.90;;;;;;5071492;28;20372;-50
2022/12/28 09:28:34;;;;;;;4.88;0.90;;;8.20;99.90;;;;;;5070240;28;20411;-55
2022/12/28 09:31:08;;;;;;;5.80;0.90;;;7.40;99.90;;;;;;5070953;28;20380;-52
2022/12/28 09:36:19;;;;;;;4.60;0.60;;;8.40;99.90;;;;;;5088137;28;20747;-50
2022/12/28 09:38:46;;;;;;;5.47;0.98;;;8.50;99.90;;;;;;5083294;28;20413;-50
2022/12/28 09:41:35;;;;;;;4.55;0.70;;;8.60;99.90;;;;;;5087559;28;20378;-50
2022/12/28 09:44:16;;;;;;;4.60;0.82;;;8.70;99.90;;;;;;5022030;28;20427;-52
2022/12/28 09:46:45;;;;;;;4.80;0.70;;;9.80;99.90;;;;;;5082443;28;20470;-53
2022/12/28 09:49:15;;;;;;;4.40;0.70;;;9.70;45.70;;;;;;5071309;28;20428;-51
2022/12/28 09:51:50;;;;;;;4.97;0.65;;;9.90;1.00;;;;;;5074014;28;20765;-53
2022/12/28 09:54:15;;;;;;;5.77;0.97;;;9.90;1.00;;;;;;5070498;28;20412;-53
2022/12/28 09:56:43;;;;;;;4.90;0.80;;;10.10;1.00;;;;;;5070016;28;20431;-53
2022/12/28 09:59:16;;;;;;;6.00;0.68;;;10.00;1.00;;;;;;5070422;28;20853;-53
2022/12/28 10:01:42;;;;;;;6.40;1.00;;;10.00;1.00;;;;;;5067984;28;20400;-53
2022/12/28 10:04:10;;;;;;;6.33;0.70;;;10.10;1.00;;;;;;5069091;28;20575;-51
2022/12/28 10:06:36;;;;;;;4.30;0.70;;;9.80;1.00;;;;;;5069855;28;20419;-56
2022/12/28 10:09:10;;;;;;;4.50;0.70;;;10.10;1.00;;;;;;5070392;28;20379;-51
2022/12/28 10:11:42;;;;;;;6.70;0.80;;;10.00;1.00;;;;;;5069832;28;20372;-56
2022/12/28 10:14:26;;;;;;;5.00;0.60;;;10.10;1.00;;;;;;5069950;28;20426;-53
2022/12/28 10:16:52;;;;;;;6.18;0.63;;;10.10;1.00;;;;;;5069692;28;20395;-52
2022/12/28 10:19:24;;;;;;;4.47;0.70;;;10.10;1.00;;;;;;5070031;28;20403;-54
2022/12/28 10:22:01;;;;;;;6.80;1.83;;;10.00;1.00;;;;;;5069348;28;20868;-51
2022/12/28 10:24:28;;;;;;;5.45;1.67;;;9.80;1.00;;;;;;5070579;28;20384;-51
2022/12/28 10:26:55;;;;;;;5.37;1.80;;;9.80;1.00;;;;;;5069693;28;20386;-53
2022/12/28 10:29:23;;;;;;;9.30;3.83;;;9.80;1.00;;;;;;5070160;28;20410;-54
2022/12/28 10:32:08;;;;;;;7.18;3.13;;;9.70;1.00;;;;;;5069522;28;20371;-51
2022/12/28 10:34:35;;;;;;;6.57;2.38;;;9.70;1.00;;;;;;5069259;28;20470;-57
2022/12/28 10:37:13;;;;;;;7.00;2.65;;;9.70;1.00;;;;;;5069210;28;20386;-53
2022/12/28 10:39:46;;;;;;;5.50;1.40;;;9.60;1.00;;;;;;5068998;28;20415;-51
2022/12/28 10:42:30;;;;;;;5.65;1.10;;;9.50;1.00;;;;;;5052143;28;20479;-51
2022/12/28 10:45:06;;;;;;;5.35;1.10;;;9.50;1.00;;;;;;5069059;28;21053;-51
2022/12/28 10:47:40;;;;;;;6.30;1.20;;;9.40;1.00;;;;;;5069937;28;20392;-51
2022/12/28 10:50:06;;;;;;;5.70;0.80;;;9.50;1.00;;;;;;5069895;28;20457;-52
2022/12/28 10:52:32;;;;;;;7.00;0.90;;;9.60;1.00;;;;;;5069652;28;20453;-51
2022/12/28 10:54:57;;;;;;;5.40;0.90;;;10.10;1.00;;;;;;5068723;28;20779;-52
2022/12/28 10:57:28;;;;;;;4.67;0.60;;;9.80;1.00;;;;;;5069520;28;20403;-51
2022/12/28 11:00:23;;;;;;;6.30;1.00;;;10.00;1.00;;;;;;5068982;28;20470;-52
2022/12/28 11:02:48;;;;;;;5.00;0.80;;;10.30;1.00;;;;;;5068967;28;20548;-51
2022/12/28 11:05:23;;;;;;;4.95;0.93;;;10.40;1.00;;;;;;5069468;28;20474;-51
2022/12/28 11:08:03;;;;;;;6.07;1.35;;;10.20;1.00;;;;;;5068553;28;20380;-51
2022/12/28 11:10:29;;;;;;;8.20;3.00;;;10.20;1.00;;;;;;5069532;28;20461;-53
2022/12/28 11:12:57;;;;;;;7.80;2.20;;;10.50;1.00;;;;;;5068679;28;20873;-52
2022/12/28 11:15:31;;;;;;;7.90;2.00;;;10.40;1.00;;;;;;5069535;28;20391;-53
2022/12/28 11:18:17;;;;;;;5.00;1.00;;;10.50;1.00;;;;;;5070822;28;20411;-53
2022/12/28 11:20:51;;;;;;;5.00;0.95;;;10.50;1.00;;;;;;5072935;28;20407;-53
2022/12/28 11:23:30;;;;;;;9.48;3.17;;;10.40;1.00;;;;;;5073287;28;20462;-54
2022/12/28 11:25:56;;;;;;;8.77;2.17;;;10.40;1.00;;;;;;5072790;28;20380;-53
2022/12/28 11:28:22;;;;;;;9.33;3.30;;;10.20;1.00;;;;;;5073197;28;20849;-53
2022/12/28 11:30:50;;;;;;;4.75;0.85;;;10.10;1.00;;;;;;5072756;28;20391;-53
2022/12/28 11:33:40;;;;;;;5.80;1.00;;;10.10;1.00;;;;;;5073496;28;20367;-53
2022/12/28 11:36:26;;;;;;;5.28;0.80;;;10.00;1.00;;;;;;5072845;28;20414;-55
2022/12/28 11:38:55;;;;;;;5.30;0.70;;;10.10;1.00;;;;;;5056415;28;20408;-54
2022/12/28 11:41:23;;;;;;;4.60;0.75;;;10.10;1.00;;;;;;5073323;28;20842;-53
2022/12/28 11:43:53;;;;;;;5.10;0.80;;;10.20;1.00;;;;;;5072197;28;20394;-53
2022/12/28 11:46:21;;;;;;;5.40;1.17;;;10.20;1.00;;;;;;5073116;28;20469;-51
2022/12/28 11:49:02;;;;;;;5.90;1.10;;;10.30;1.00;;;;;;5072434;28;20394;-52
2022/12/28 11:51:29;;;;;;;4.90;1.10;;;10.40;1.00;;;;;;5073060;28;20391;-56
2022/12/28 11:53:59;;;;;;;4.90;0.87;;;10.50;1.00;;;;;;5072371;28;20379;-51
2022/12/28 11:56:43;;;;;;;5.73;1.73;;;10.50;1.00;;;;;;5072553;28;20470;-51
2022/12/28 11:59:33;;;;;;;5.13;1.00;;;10.50;1.00;;;;;;5072542;28;20953;-51
2022/12/28 12:02:00;;;;;;;4.30;0.90;;;10.50;1.00;;;;;;5071987;28;20722;-51
2022/12/28 12:04:42;;;;;;;4.55;0.90;;;10.30;1.00;;;;;;5072523;28;20392;-54
2022/12/28 12:07:20;;;;;;;5.00;0.70;;;10.40;1.00;;;;;;5072593;28;20804;-53
2022/12/28 12:09:48;;;;;;;4.60;0.80;;;10.30;1.00;;;;;;5071963;28;20395;-51
2022/12/28 12:12:13;;;;;;;4.80;0.70;;;10.30;1.00;;;;;;5072831;28;20387;-51
2022/12/28 12:14:49;;;;;;;4.43;0.68;;;10.20;1.00;;;;;;5071671;28;20399;-56
2022/12/28 12:17:22;;;;;;;6.03;0.63;;;10.10;1.00;;;;;;5072648;28;20387;-55
2022/12/28 12:19:52;;;;;;;5.20;1.10;;;10.10;1.00;;;;;;5071736;28;20392;-53
2022/12/28 12:22:43;;;;;;;4.10;0.50;;;10.80;1.00;;;;;;5072701;28;20383;-53
2022/12/28 12:25:43;;;;;;;5.40;0.80;;;10.10;1.00;;;;;;5071567;28;20479;-52
2022/12/28 12:28:41;;;;;;;4.60;0.80;;;10.10;1.00;;;;;;5028281;28;20399;-53
2022/12/28 12:31:13;;;;;;;4.60;0.90;;;10.60;1.00;;;;;;5072460;28;20367;-51
2022/12/28 12:33:43;;;;;;;4.80;0.90;;;10.10;1.00;;;;;;5071568;28;20383;-58
2022/12/28 12:36:26;;;;;;;5.75;0.82;;;10.10;1.00;;;;;;5072550;28;20411;-52
2022/12/28 12:39:18;;;;;;;4.40;0.70;;;10.00;1.00;;;;;;5071383;28;20407;-52
2022/12/28 12:41:55;;;;;;;5.35;0.82;;;10.00;1.00;;;;;;5071588;28;20433;-53
2022/12/28 12:44:56;;;;;;;6.93;0.90;;;10.00;1.00;;;;;;5072405;28;20372;-53
2022/12/28 12:47:43;;;;;;;5.30;0.70;;;10.10;1.00;;;;;;5072344;28;20380;-52
2022/12/28 12:50:39;;;;;;;4.75;0.88;;;10.10;1.00;;;;;;5072215;28;20380;-52
2022/12/28 12:53:28;;;;;;;6.10;0.88;;;10.10;1.00;;;;;;5072381;28;20467;-52
2022/12/28 12:56:32;;;;;;;4.95;0.70;;;10.10;1.00;;;;;;5070896;28;20419;-52
2022/12/28 12:59:09;;;;;;;4.90;0.90;;;10.10;1.00;;;;;;5070681;28;20557;-52
2022/12/28 13:01:46;;;;;;;4.57;0.80;;;10.00;1.00;;;;;;5071599;28;20380;-53
2022/12/28 13:04:21;;;;;;;4.20;0.70;;;10.00;1.00;;;;;;5071535;28;20488;-52
2022/12/28 13:06:55;;;;;;;6.20;0.90;;;9.90;1.00;;;;;;5071071;28;20388;-52
2022/12/28 13:09:23;;;;;;;4.77;0.90;;;9.90;1.00;;;;;;5071811;28;20392;-52
2022/12/28 13:11:50;;;;;;;5.30;1.50;;;9.90;1.00;;;;;;5070921;28;20399;-52
2022/12/28 13:14:21;;;;;;;4.60;0.80;;;10.80;1.00;;;;;;5070918;28;20807;-53
2022/12/28 13:16:50;;;;;;;5.50;1.05;;;10.60;1.00;;;;;;5070638;28;20382;-52
2022/12/28 13:19:20;;;;;;;6.63;1.15;;;10.00;1.00;;;;;;5071305;28;20411;-52
2022/12/28 13:21:50;;;;;;;4.85;1.00;;;10.00;1.00;;;;;;5070379;28;20380;-52
2022/12/28 13:24:27;;;;;;;5.55;0.90;;;9.90;1.00;;;;;;5071121;28;20380;-53
2022/12/28 13:26:55;;;;;;;4.93;0.93;;;9.70;1.00;;;;;;5070572;28;20384;-52
2022/12/28 13:29:23;;;;;;;5.57;1.20;;;9.70;1.00;;;;;;5070877;28;20837;-52
2022/12/28 13:31:50;;;;;;;5.15;1.10;;;9.80;1.00;;;;;;5070277;28;20388;-53
2022/12/28 13:34:34;;;;;;;8.02;1.38;;;9.80;1.00;;;;;;5070899;28;20713;-52
2022/12/28 13:37:02;;;;;;;5.35;1.20;;;9.80;1.00;;;;;;5069559;28;20430;-52
2022/12/28 13:39:29;;;;;;;5.47;1.15;;;9.80;1.00;;;;;;5069130;28;20486;-52
2022/12/28 13:42:01;;;;;;;5.25;1.00;;;9.80;1.00;;;;;;5070097;28;20570;-50
2022/12/28 13:44:38;;;;;;;4.80;1.10;;;9.70;1.00;;;;;;5052858;28;20481;-51
2022/12/28 13:47:37;;;;;;;6.15;1.23;;;9.70;1.00;;;;;;5068542;28;20445;-50